sensor_id;sensor_type;location;lat;lon;timestamp;P1;durP1;ratioP1;P2;durP2;ratioP2
3329;SDS011;1677;49.576;10.990;2023-04-29T00:00:04;4.03;;;3.03;;
3329;SDS011;1677;49.576;10.990;2023-04-29T00:02:33;3.33;;;2.87;;
3329;SDS011;1677;49.576;10.990;2023-04-29T00:04:59;3.20;;;2.90;;
3329;SDS011;1677;49.576;10.990;2023-04-29T00:07:25;10.73;;;3.20;;
3329;SDS011;1677;49.576;10.990;2023-04-29T00:09:50;2.83;;;2.60;;
3329;SDS011;1677;49.576;10.990;2023-04-29T00:12:16;2.97;;;2.67;;
3329;SDS011;1677;49.576;10.990;2023-04-29T00:14:42;4.00;;;3.40;;
3329;SDS011;1677;49.576;10.990;2023-04-29T00:17:08;3.00;;;2.70;;
3329;SDS011;1677;49.576;10.990;2023-04-29T00:19:34;4.37;;;3.40;;
3329;SDS011;1677;49.576;10.990;2023-04-29T00:21:59;4.03;;;3.63;;
3329;SDS011;1677;49.576;10.990;2023-04-29T00:24:25;3.27;;;2.97;;
3329;SDS011;1677;49.576;10.990;2023-04-29T00:26:51;3.07;;;2.77;;
3329;SDS011;1677;49.576;10.990;2023-04-29T00:29:17;3.50;;;3.03;;
3329;SDS011;1677;49.576;10.990;2023-04-29T00:31:43;3.07;;;2.80;;
3329;SDS011;1677;49.576;10.990;2023-04-29T00:34:09;3.47;;;3.17;;
3329;SDS011;1677;49.576;10.990;2023-04-29T00:36:34;2.70;;;2.50;;
3329;SDS011;1677;49.576;10.990;2023-04-29T00:39:00;4.30;;;3.40;;
3329;SDS011;1677;49.576;10.990;2023-04-29T00:41:26;2.83;;;2.63;;
3329;SDS011;1677;49.576;10.990;2023-04-29T00:43:52;3.77;;;3.40;;
3329;SDS011;1677;49.576;10.990;2023-04-29T00:46:17;3.80;;;3.40;;
3329;SDS011;1677;49.576;10.990;2023-04-29T00:48:43;3.80;;;3.40;;
3329;SDS011;1677;49.576;10.990;2023-04-29T00:51:09;4.33;;;3.20;;
3329;SDS011;1677;49.576;10.990;2023-04-29T00:53:35;3.77;;;3.13;;
3329;SDS011;1677;49.576;10.990;2023-04-29T00:56:02;3.87;;;3.57;;
3329;SDS011;1677;49.576;10.990;2023-04-29T00:58:28;3.10;;;2.87;;
3329;SDS011;1677;49.576;10.990;2023-04-29T01:01:03;3.60;;;3.00;;
3329;SDS011;1677;49.576;10.990;2023-04-29T01:03:29;5.20;;;3.47;;
3329;SDS011;1677;49.576;10.990;2023-04-29T01:06:34;4.80;;;3.67;;
3329;SDS011;1677;49.576;10.990;2023-04-29T01:11:24;4.13;;;3.80;;
3329;SDS011;1677;49.576;10.990;2023-04-29T01:13:58;4.40;;;4.00;;
3329;SDS011;1677;49.576;10.990;2023-04-29T01:16:37;4.43;;;4.00;;
3329;SDS011;1677;49.576;10.990;2023-04-29T01:21:51;4.43;;;4.03;;
3329;SDS011;1677;49.576;10.990;2023-04-29T01:24:16;3.60;;;3.30;;
3329;SDS011;1677;49.576;10.990;2023-04-29T01:26:44;5.23;;;3.87;;
3329;SDS011;1677;49.576;10.990;2023-04-29T01:32:03;4.00;;;3.37;;
3329;SDS011;1677;49.576;10.990;2023-04-29T01:34:33;4.60;;;3.67;;
3329;SDS011;1677;49.576;10.990;2023-04-29T01:40:04;3.87;;;3.57;;
3329;SDS011;1677;49.576;10.990;2023-04-29T01:42:46;4.50;;;3.33;;
3329;SDS011;1677;49.576;10.990;2023-04-29T01:45:19;3.67;;;3.37;;
3329;SDS011;1677;49.576;10.990;2023-04-29T01:47:46;4.87;;;3.00;;
3329;SDS011;1677;49.576;10.990;2023-04-29T01:50:14;3.83;;;3.53;;
3329;SDS011;1677;49.576;10.990;2023-04-29T01:52:40;4.37;;;3.70;;
3329;SDS011;1677;49.576;10.990;2023-04-29T01:55:06;6.93;;;4.20;;
3329;SDS011;1677;49.576;10.990;2023-04-29T01:57:32;4.53;;;4.13;;
3329;SDS011;1677;49.576;10.990;2023-04-29T01:59:58;4.57;;;4.07;;
3329;SDS011;1677;49.576;10.990;2023-04-29T02:02:23;4.10;;;3.40;;
3329;SDS011;1677;49.576;10.990;2023-04-29T02:04:49;3.40;;;3.10;;
3329;SDS011;1677;49.576;10.990;2023-04-29T02:07:15;4.10;;;3.80;;
3329;SDS011;1677;49.576;10.990;2023-04-29T02:09:41;4.20;;;3.80;;
3329;SDS011;1677;49.576;10.990;2023-04-29T02:12:06;5.00;;;4.50;;
3329;SDS011;1677;49.576;10.990;2023-04-29T02:14:32;7.80;;;3.77;;
3329;SDS011;1677;49.576;10.990;2023-04-29T02:16:58;4.53;;;4.13;;
3329;SDS011;1677;49.576;10.990;2023-04-29T02:19:24;4.70;;;4.30;;
3329;SDS011;1677;49.576;10.990;2023-04-29T02:21:49;4.20;;;3.50;;
3329;SDS011;1677;49.576;10.990;2023-04-29T02:24:15;4.50;;;4.07;;
3329;SDS011;1677;49.576;10.990;2023-04-29T02:26:40;4.03;;;3.67;;
3329;SDS011;1677;49.576;10.990;2023-04-29T02:29:06;3.80;;;3.50;;
3329;SDS011;1677;49.576;10.990;2023-04-29T02:31:32;4.10;;;3.70;;
3329;SDS011;1677;49.576;10.990;2023-04-29T02:33:57;4.23;;;3.20;;
3329;SDS011;1677;49.576;10.990;2023-04-29T02:36:24;4.23;;;3.83;;
3329;SDS011;1677;49.576;10.990;2023-04-29T02:38:50;4.43;;;4.03;;
3329;SDS011;1677;49.576;10.990;2023-04-29T02:41:19;3.97;;;3.63;;
3329;SDS011;1677;49.576;10.990;2023-04-29T02:43:44;4.70;;;4.30;;
3329;SDS011;1677;49.576;10.990;2023-04-29T02:46:10;4.50;;;4.00;;
3329;SDS011;1677;49.576;10.990;2023-04-29T02:48:36;4.43;;;4.03;;
3329;SDS011;1677;49.576;10.990;2023-04-29T02:51:02;4.10;;;3.70;;
3329;SDS011;1677;49.576;10.990;2023-04-29T02:53:27;6.27;;;3.70;;
3329;SDS011;1677;49.576;10.990;2023-04-29T02:55:53;5.63;;;3.80;;
3329;SDS011;1677;49.576;10.990;2023-04-29T02:58:19;5.28;;;3.95;;
3329;SDS011;1677;49.576;10.990;2023-04-29T03:00:45;4.10;;;3.80;;
3329;SDS011;1677;49.576;10.990;2023-04-29T03:03:10;4.30;;;3.90;;
3329;SDS011;1677;49.576;10.990;2023-04-29T03:05:36;4.77;;;4.27;;
3329;SDS011;1677;49.576;10.990;2023-04-29T03:08:02;4.80;;;4.40;;
3329;SDS011;1677;49.576;10.990;2023-04-29T03:10:28;4.23;;;3.83;;
3329;SDS011;1677;49.576;10.990;2023-04-29T03:12:54;7.80;;;4.30;;
3329;SDS011;1677;49.576;10.990;2023-04-29T03:15:19;4.40;;;4.00;;
3329;SDS011;1677;49.576;10.990;2023-04-29T03:17:45;3.70;;;3.30;;
3329;SDS011;1677;49.576;10.990;2023-04-29T03:20:11;4.30;;;3.90;;
3329;SDS011;1677;49.576;10.990;2023-04-29T03:22:36;4.93;;;4.33;;
3329;SDS011;1677;49.576;10.990;2023-04-29T03:25:02;4.67;;;4.20;;
3329;SDS011;1677;49.576;10.990;2023-04-29T03:27:28;4.90;;;4.30;;
3329;SDS011;1677;49.576;10.990;2023-04-29T03:29:54;5.70;;;4.10;;
3329;SDS011;1677;49.576;10.990;2023-04-29T03:32:19;4.20;;;3.87;;
3329;SDS011;1677;49.576;10.990;2023-04-29T03:34:45;4.87;;;4.37;;
3329;SDS011;1677;49.576;10.990;2023-04-29T03:37:11;4.23;;;3.83;;
3329;SDS011;1677;49.576;10.990;2023-04-29T03:39:36;5.00;;;4.27;;
3329;SDS011;1677;49.576;10.990;2023-04-29T03:42:02;5.23;;;3.77;;
3329;SDS011;1677;49.576;10.990;2023-04-29T03:44:28;4.50;;;4.10;;
3329;SDS011;1677;49.576;10.990;2023-04-29T03:46:54;4.17;;;3.77;;
3329;SDS011;1677;49.576;10.990;2023-04-29T03:49:19;4.53;;;4.03;;
3329;SDS011;1677;49.576;10.990;2023-04-29T03:51:45;4.50;;;3.93;;
3329;SDS011;1677;49.576;10.990;2023-04-29T03:54:11;4.63;;;4.23;;
3329;SDS011;1677;49.576;10.990;2023-04-29T03:56:37;4.43;;;4.03;;
3329;SDS011;1677;49.576;10.990;2023-04-29T03:59:03;4.67;;;4.27;;
3329;SDS011;1677;49.576;10.990;2023-04-29T04:01:28;5.07;;;4.43;;
3329;SDS011;1677;49.576;10.990;2023-04-29T04:03:54;4.37;;;4.00;;
3329;SDS011;1677;49.576;10.990;2023-04-29T04:06:20;7.07;;;5.17;;
3329;SDS011;1677;49.576;10.990;2023-04-29T04:08:46;6.00;;;4.20;;
3329;SDS011;1677;49.576;10.990;2023-04-29T04:11:11;4.70;;;4.30;;
3329;SDS011;1677;49.576;10.990;2023-04-29T04:13:39;5.30;;;4.80;;
3329;SDS011;1677;49.576;10.990;2023-04-29T04:16:07;8.10;;;4.30;;
3329;SDS011;1677;49.576;10.990;2023-04-29T04:18:35;5.70;;;5.10;;
3329;SDS011;1677;49.576;10.990;2023-04-29T04:21:08;4.97;;;4.20;;
3329;SDS011;1677;49.576;10.990;2023-04-29T04:23:35;4.60;;;4.20;;
3329;SDS011;1677;49.576;10.990;2023-04-29T04:26:04;4.33;;;3.70;;
3329;SDS011;1677;49.576;10.990;2023-04-29T04:28:30;4.17;;;3.77;;
3329;SDS011;1677;49.576;10.990;2023-04-29T04:30:55;5.70;;;4.00;;
3329;SDS011;1677;49.576;10.990;2023-04-29T04:33:21;4.30;;;3.90;;
3329;SDS011;1677;49.576;10.990;2023-04-29T04:35:47;3.93;;;3.53;;
3329;SDS011;1677;49.576;10.990;2023-04-29T04:38:12;4.70;;;4.10;;
3329;SDS011;1677;49.576;10.990;2023-04-29T04:40:42;5.27;;;4.80;;
3329;SDS011;1677;49.576;10.990;2023-04-29T04:43:08;5.30;;;4.67;;
3329;SDS011;1677;49.576;10.990;2023-04-29T04:45:34;5.40;;;4.90;;
3329;SDS011;1677;49.576;10.990;2023-04-29T04:48:00;3.63;;;3.33;;
3329;SDS011;1677;49.576;10.990;2023-04-29T04:50:26;4.70;;;4.30;;
3329;SDS011;1677;49.576;10.990;2023-04-29T04:52:53;4.43;;;4.03;;
3329;SDS011;1677;49.576;10.990;2023-04-29T04:55:22;3.70;;;3.40;;
3329;SDS011;1677;49.576;10.990;2023-04-29T04:57:48;4.57;;;3.97;;
3329;SDS011;1677;49.576;10.990;2023-04-29T05:00:14;3.80;;;3.50;;
3329;SDS011;1677;49.576;10.990;2023-04-29T05:02:40;3.70;;;3.40;;
3329;SDS011;1677;49.576;10.990;2023-04-29T05:05:06;3.70;;;3.30;;
3329;SDS011;1677;49.576;10.990;2023-04-29T05:07:32;4.68;;;3.75;;
3329;SDS011;1677;49.576;10.990;2023-04-29T05:10:01;6.07;;;3.93;;
3329;SDS011;1677;49.576;10.990;2023-04-29T05:12:28;5.77;;;3.97;;
3329;SDS011;1677;49.576;10.990;2023-04-29T05:14:57;5.17;;;4.67;;
3329;SDS011;1677;49.576;10.990;2023-04-29T05:17:22;4.17;;;3.77;;
3329;SDS011;1677;49.576;10.990;2023-04-29T05:19:48;6.57;;;5.80;;
3329;SDS011;1677;49.576;10.990;2023-04-29T05:22:13;6.00;;;5.40;;
3329;SDS011;1677;49.576;10.990;2023-04-29T05:24:39;6.30;;;5.60;;
3329;SDS011;1677;49.576;10.990;2023-04-29T05:27:04;6.80;;;5.50;;
3329;SDS011;1677;49.576;10.990;2023-04-29T05:29:30;6.00;;;5.43;;
3329;SDS011;1677;49.576;10.990;2023-04-29T05:31:56;5.67;;;5.10;;
3329;SDS011;1677;49.576;10.990;2023-04-29T05:34:22;6.20;;;5.60;;
3329;SDS011;1677;49.576;10.990;2023-04-29T05:36:47;5.97;;;5.37;;
3329;SDS011;1677;49.576;10.990;2023-04-29T05:39:13;7.23;;;6.00;;
3329;SDS011;1677;49.576;10.990;2023-04-29T05:41:39;6.03;;;5.17;;
3329;SDS011;1677;49.576;10.990;2023-04-29T05:44:04;9.93;;;5.30;;
3329;SDS011;1677;49.576;10.990;2023-04-29T05:46:30;6.60;;;5.40;;
3329;SDS011;1677;49.576;10.990;2023-04-29T05:48:55;4.53;;;4.13;;
3329;SDS011;1677;49.576;10.990;2023-04-29T05:51:21;5.50;;;5.00;;
3329;SDS011;1677;49.576;10.990;2023-04-29T05:53:47;8.63;;;4.83;;
3329;SDS011;1677;49.576;10.990;2023-04-29T05:56:12;6.60;;;6.00;;
3329;SDS011;1677;49.576;10.990;2023-04-29T05:58:38;6.53;;;5.80;;
3329;SDS011;1677;49.576;10.990;2023-04-29T06:01:03;6.53;;;5.50;;
3329;SDS011;1677;49.576;10.990;2023-04-29T06:03:29;7.27;;;6.57;;
3329;SDS011;1677;49.576;10.990;2023-04-29T06:05:55;5.73;;;5.23;;
3329;SDS011;1677;49.576;10.990;2023-04-29T06:08:20;6.13;;;5.30;;
3329;SDS011;1677;49.576;10.990;2023-04-29T06:10:46;6.30;;;5.70;;
3329;SDS011;1677;49.576;10.990;2023-04-29T06:13:12;7.20;;;6.50;;
3329;SDS011;1677;49.576;10.990;2023-04-29T06:15:37;6.20;;;5.60;;
3329;SDS011;1677;49.576;10.990;2023-04-29T06:18:03;6.37;;;5.77;;
3329;SDS011;1677;49.576;10.990;2023-04-29T06:20:28;7.50;;;6.70;;
3329;SDS011;1677;49.576;10.990;2023-04-29T06:22:54;6.67;;;5.60;;
3329;SDS011;1677;49.576;10.990;2023-04-29T06:25:20;7.20;;;6.23;;
3329;SDS011;1677;49.576;10.990;2023-04-29T06:27:46;6.50;;;5.40;;
3329;SDS011;1677;49.576;10.990;2023-04-29T06:30:13;6.67;;;6.07;;
3329;SDS011;1677;49.576;10.990;2023-04-29T06:32:39;7.70;;;6.40;;
3329;SDS011;1677;49.576;10.990;2023-04-29T06:35:04;8.83;;;6.40;;
3329;SDS011;1677;49.576;10.990;2023-04-29T06:37:30;7.17;;;6.40;;
3329;SDS011;1677;49.576;10.990;2023-04-29T06:39:56;7.03;;;6.10;;
3329;SDS011;1677;49.576;10.990;2023-04-29T06:42:21;7.83;;;6.70;;
3329;SDS011;1677;49.576;10.990;2023-04-29T06:44:47;7.07;;;5.60;;
3329;SDS011;1677;49.576;10.990;2023-04-29T06:47:12;7.80;;;6.10;;
3329;SDS011;1677;49.576;10.990;2023-04-29T06:49:39;7.20;;;5.77;;
3329;SDS011;1677;49.576;10.990;2023-04-29T06:52:04;7.00;;;6.30;;
3329;SDS011;1677;49.576;10.990;2023-04-29T06:54:31;6.40;;;5.80;;
3329;SDS011;1677;49.576;10.990;2023-04-29T06:56:56;7.20;;;6.47;;
3329;SDS011;1677;49.576;10.990;2023-04-29T06:59:22;9.40;;;7.90;;
3329;SDS011;1677;49.576;10.990;2023-04-29T07:01:47;9.50;;;6.60;;
3329;SDS011;1677;49.576;10.990;2023-04-29T07:04:13;7.00;;;6.40;;
3329;SDS011;1677;49.576;10.990;2023-04-29T07:06:39;7.03;;;5.77;;
3329;SDS011;1677;49.576;10.990;2023-04-29T07:09:04;7.13;;;6.00;;
3329;SDS011;1677;49.576;10.990;2023-04-29T07:11:30;8.77;;;5.60;;
3329;SDS011;1677;49.576;10.990;2023-04-29T07:13:56;7.90;;;5.63;;
3329;SDS011;1677;49.576;10.990;2023-04-29T07:16:21;5.80;;;4.93;;
3329;SDS011;1677;49.576;10.990;2023-04-29T07:18:50;6.10;;;5.50;;
3329;SDS011;1677;49.576;10.990;2023-04-29T07:21:15;5.93;;;5.30;;
3329;SDS011;1677;49.576;10.990;2023-04-29T07:23:41;7.67;;;6.20;;
3329;SDS011;1677;49.576;10.990;2023-04-29T07:28:40;6.77;;;6.07;;
3329;SDS011;1677;49.576;10.990;2023-04-29T07:31:06;7.20;;;6.50;;
3329;SDS011;1677;49.576;10.990;2023-04-29T07:33:32;7.97;;;6.27;;
3329;SDS011;1677;49.576;10.990;2023-04-29T07:35:58;6.70;;;6.10;;
3329;SDS011;1677;49.576;10.990;2023-04-29T07:38:24;7.13;;;6.20;;
3329;SDS011;1677;49.576;10.990;2023-04-29T07:40:50;8.37;;;5.67;;
3329;SDS011;1677;49.576;10.990;2023-04-29T07:43:16;6.35;;;5.45;;
3329;SDS011;1677;49.576;10.990;2023-04-29T07:45:41;7.40;;;6.10;;
3329;SDS011;1677;49.576;10.990;2023-04-29T07:48:07;7.50;;;5.40;;
3329;SDS011;1677;49.576;10.990;2023-04-29T07:50:33;7.00;;;5.70;;
3329;SDS011;1677;49.576;10.990;2023-04-29T07:53:00;8.10;;;6.80;;
3329;SDS011;1677;49.576;10.990;2023-04-29T07:55:27;7.40;;;6.60;;
3329;SDS011;1677;49.576;10.990;2023-04-29T07:57:54;6.90;;;5.83;;
3329;SDS011;1677;49.576;10.990;2023-04-29T08:00:20;7.13;;;5.70;;
3329;SDS011;1677;49.576;10.990;2023-04-29T08:02:49;5.73;;;5.13;;
3329;SDS011;1677;49.576;10.990;2023-04-29T08:05:16;6.40;;;5.17;;
3329;SDS011;1677;49.576;10.990;2023-04-29T08:07:42;9.70;;;6.00;;
3329;SDS011;1677;49.576;10.990;2023-04-29T08:10:07;6.73;;;5.30;;
3329;SDS011;1677;49.576;10.990;2023-04-29T08:12:33;6.30;;;5.70;;
3329;SDS011;1677;49.576;10.990;2023-04-29T08:14:59;6.80;;;6.10;;
3329;SDS011;1677;49.576;10.990;2023-04-29T08:17:24;7.70;;;5.87;;
3329;SDS011;1677;49.576;10.990;2023-04-29T08:19:50;6.50;;;5.60;;
3329;SDS011;1677;49.576;10.990;2023-04-29T08:22:15;5.73;;;5.17;;
3329;SDS011;1677;49.576;10.990;2023-04-29T08:24:41;8.87;;;5.23;;
3329;SDS011;1677;49.576;10.990;2023-04-29T08:27:07;7.60;;;4.60;;
3329;SDS011;1677;49.576;10.990;2023-04-29T08:29:33;6.50;;;5.63;;
3329;SDS011;1677;49.576;10.990;2023-04-29T08:31:58;5.87;;;5.30;;
3329;SDS011;1677;49.576;10.990;2023-04-29T08:34:24;6.30;;;5.70;;
3329;SDS011;1677;49.576;10.990;2023-04-29T08:36:50;5.97;;;5.23;;
3329;SDS011;1677;49.576;10.990;2023-04-29T08:39:16;5.90;;;5.17;;
3329;SDS011;1677;49.576;10.990;2023-04-29T08:41:41;6.70;;;5.80;;
3329;SDS011;1677;49.576;10.990;2023-04-29T08:44:13;6.90;;;4.90;;
3329;SDS011;1677;49.576;10.990;2023-04-29T08:46:39;6.93;;;5.47;;
3329;SDS011;1677;49.576;10.990;2023-04-29T08:49:05;6.87;;;5.80;;
3329;SDS011;1677;49.576;10.990;2023-04-29T08:51:31;6.67;;;6.07;;
3329;SDS011;1677;49.576;10.990;2023-04-29T08:53:58;6.67;;;5.20;;
3329;SDS011;1677;49.576;10.990;2023-04-29T08:56:24;6.43;;;5.57;;
3329;SDS011;1677;49.576;10.990;2023-04-29T08:58:51;7.23;;;6.03;;
3329;SDS011;1677;49.576;10.990;2023-04-29T09:01:18;6.80;;;5.77;;
3329;SDS011;1677;49.576;10.990;2023-04-29T09:06:14;8.53;;;6.03;;
3329;SDS011;1677;49.576;10.990;2023-04-29T09:08:40;7.13;;;6.43;;
3329;SDS011;1677;49.576;10.990;2023-04-29T09:11:08;6.03;;;5.43;;
3329;SDS011;1677;49.576;10.990;2023-04-29T09:13:36;5.17;;;4.67;;
3329;SDS011;1677;49.576;10.990;2023-04-29T09:16:02;5.37;;;4.87;;
3329;SDS011;1677;49.576;10.990;2023-04-29T09:18:47;6.03;;;5.30;;
3329;SDS011;1677;49.576;10.990;2023-04-29T09:21:15;8.40;;;5.37;;
3329;SDS011;1677;49.576;10.990;2023-04-29T09:23:40;6.90;;;6.20;;
3329;SDS011;1677;49.576;10.990;2023-04-29T09:26:06;6.20;;;5.17;;
3329;SDS011;1677;49.576;10.990;2023-04-29T09:28:32;5.30;;;4.80;;
3329;SDS011;1677;49.576;10.990;2023-04-29T09:30:58;7.07;;;5.68;;
3329;SDS011;1677;49.576;10.990;2023-04-29T09:33:23;4.80;;;4.30;;
3329;SDS011;1677;49.576;10.990;2023-04-29T09:35:52;6.13;;;4.90;;
3329;SDS011;1677;49.576;10.990;2023-04-29T09:38:18;6.03;;;4.47;;
3329;SDS011;1677;49.576;10.990;2023-04-29T09:40:44;6.00;;;4.67;;
3329;SDS011;1677;49.576;10.990;2023-04-29T09:43:11;5.70;;;4.83;;
3329;SDS011;1677;49.576;10.990;2023-04-29T09:45:43;4.97;;;4.10;;
3329;SDS011;1677;49.576;10.990;2023-04-29T09:48:10;4.40;;;4.10;;
3329;SDS011;1677;49.576;10.990;2023-04-29T09:50:39;4.30;;;3.80;;
3329;SDS011;1677;49.576;10.990;2023-04-29T09:53:08;4.57;;;4.17;;
3329;SDS011;1677;49.576;10.990;2023-04-29T09:55:35;7.57;;;5.93;;
3329;SDS011;1677;49.576;10.990;2023-04-29T09:58:28;6.67;;;5.17;;
3329;SDS011;1677;49.576;10.990;2023-04-29T10:00:55;4.83;;;4.30;;
3329;SDS011;1677;49.576;10.990;2023-04-29T10:03:25;5.20;;;4.70;;
3329;SDS011;1677;49.576;10.990;2023-04-29T10:05:55;6.17;;;5.37;;
3329;SDS011;1677;49.576;10.990;2023-04-29T10:08:22;6.27;;;4.40;;
3329;SDS011;1677;49.576;10.990;2023-04-29T10:10:48;5.77;;;5.20;;
3329;SDS011;1677;49.576;10.990;2023-04-29T10:13:21;4.90;;;4.40;;
3329;SDS011;1677;49.576;10.990;2023-04-29T10:16:03;7.03;;;4.87;;
3329;SDS011;1677;49.576;10.990;2023-04-29T10:18:53;5.60;;;5.00;;
3329;SDS011;1677;49.576;10.990;2023-04-29T10:21:20;5.30;;;4.80;;
3329;SDS011;1677;49.576;10.990;2023-04-29T10:23:55;4.90;;;4.40;;
3329;SDS011;1677;49.576;10.990;2023-04-29T10:26:25;5.97;;;4.70;;
3329;SDS011;1677;49.576;10.990;2023-04-29T10:28:54;4.90;;;4.30;;
3329;SDS011;1677;49.576;10.990;2023-04-29T10:31:21;4.93;;;4.50;;
3329;SDS011;1677;49.576;10.990;2023-04-29T10:33:49;5.60;;;4.90;;
3329;SDS011;1677;49.576;10.990;2023-04-29T10:36:19;4.80;;;4.07;;
3329;SDS011;1677;49.576;10.990;2023-04-29T10:38:47;5.77;;;5.20;;
3329;SDS011;1677;49.576;10.990;2023-04-29T10:41:20;4.27;;;3.83;;
3329;SDS011;1677;49.576;10.990;2023-04-29T10:43:50;5.77;;;5.20;;
3329;SDS011;1677;49.576;10.990;2023-04-29T10:46:20;5.30;;;4.80;;
3329;SDS011;1677;49.576;10.990;2023-04-29T10:48:55;4.73;;;3.63;;
3329;SDS011;1677;49.576;10.990;2023-04-29T10:51:29;4.13;;;3.73;;
3329;SDS011;1677;49.576;10.990;2023-04-29T10:59:03;4.47;;;4.07;;
3329;SDS011;1677;49.576;10.990;2023-04-29T11:01:45;5.63;;;4.03;;
3329;SDS011;1677;49.576;10.990;2023-04-29T11:04:15;3.50;;;3.20;;
3329;SDS011;1677;49.576;10.990;2023-04-29T11:06:44;3.30;;;2.90;;
3329;SDS011;1677;49.576;10.990;2023-04-29T11:09:18;3.33;;;3.03;;
3329;SDS011;1677;49.576;10.990;2023-04-29T11:12:03;3.73;;;3.30;;
3329;SDS011;1677;49.576;10.990;2023-04-29T11:17:13;4.07;;;3.37;;
3329;SDS011;1677;49.576;10.990;2023-04-29T11:19:43;3.80;;;3.50;;
3329;SDS011;1677;49.576;10.990;2023-04-29T11:24:52;5.40;;;3.87;;
3329;SDS011;1677;49.576;10.990;2023-04-29T11:27:18;3.70;;;3.30;;
3329;SDS011;1677;49.576;10.990;2023-04-29T11:29:46;3.90;;;3.50;;
3329;SDS011;1677;49.576;10.990;2023-04-29T11:32:13;3.53;;;3.03;;
3329;SDS011;1677;49.576;10.990;2023-04-29T11:34:39;3.10;;;2.80;;
3329;SDS011;1677;49.576;10.990;2023-04-29T11:37:05;3.53;;;2.80;;
3329;SDS011;1677;49.576;10.990;2023-04-29T11:39:34;3.33;;;3.03;;
3329;SDS011;1677;49.576;10.990;2023-04-29T11:42:06;3.90;;;3.10;;
3329;SDS011;1677;49.576;10.990;2023-04-29T11:44:32;3.50;;;2.83;;
3329;SDS011;1677;49.576;10.990;2023-04-29T11:47:00;5.40;;;2.83;;
3329;SDS011;1677;49.576;10.990;2023-04-29T11:49:30;3.20;;;2.90;;
3329;SDS011;1677;49.576;10.990;2023-04-29T11:51:59;2.90;;;2.53;;
3329;SDS011;1677;49.576;10.990;2023-04-29T11:54:26;3.40;;;2.80;;
3329;SDS011;1677;49.576;10.990;2023-04-29T11:56:52;4.70;;;3.30;;
3329;SDS011;1677;49.576;10.990;2023-04-29T11:59:19;4.60;;;3.77;;
3329;SDS011;1677;49.576;10.990;2023-04-29T12:01:46;5.37;;;3.20;;
3329;SDS011;1677;49.576;10.990;2023-04-29T12:04:12;4.77;;;3.37;;
3329;SDS011;1677;49.576;10.990;2023-04-29T12:06:37;4.97;;;4.07;;
3329;SDS011;1677;49.576;10.990;2023-04-29T12:09:03;6.73;;;3.53;;
3329;SDS011;1677;49.576;10.990;2023-04-29T12:11:29;4.30;;;3.57;;
3329;SDS011;1677;49.576;10.990;2023-04-29T12:13:55;5.00;;;3.80;;
3329;SDS011;1677;49.576;10.990;2023-04-29T12:16:21;7.13;;;3.30;;
3329;SDS011;1677;49.576;10.990;2023-04-29T12:18:48;2.97;;;2.27;;
3329;SDS011;1677;49.576;10.990;2023-04-29T12:21:14;4.07;;;3.17;;
3329;SDS011;1677;49.576;10.990;2023-04-29T12:23:41;3.03;;;2.73;;
3329;SDS011;1677;49.576;10.990;2023-04-29T12:26:07;3.30;;;3.00;;
3329;SDS011;1677;49.576;10.990;2023-04-29T12:28:33;4.43;;;3.37;;
3329;SDS011;1677;49.576;10.990;2023-04-29T12:30:59;3.33;;;2.73;;
3329;SDS011;1677;49.576;10.990;2023-04-29T12:33:26;3.37;;;2.70;;
3329;SDS011;1677;49.576;10.990;2023-04-29T12:35:54;3.13;;;2.70;;
3329;SDS011;1677;49.576;10.990;2023-04-29T12:38:22;3.20;;;2.90;;
3329;SDS011;1677;49.576;10.990;2023-04-29T12:40:54;3.00;;;2.70;;
3329;SDS011;1677;49.576;10.990;2023-04-29T12:43:27;3.30;;;3.00;;
3329;SDS011;1677;49.576;10.990;2023-04-29T12:46:02;3.27;;;2.40;;
3329;SDS011;1677;49.576;10.990;2023-04-29T12:48:29;3.37;;;2.70;;
3329;SDS011;1677;49.576;10.990;2023-04-29T12:50:56;3.43;;;2.93;;
3329;SDS011;1677;49.576;10.990;2023-04-29T12:53:23;3.50;;;2.43;;
3329;SDS011;1677;49.576;10.990;2023-04-29T12:55:55;2.87;;;2.63;;
3329;SDS011;1677;49.576;10.990;2023-04-29T12:58:22;3.03;;;2.67;;
3329;SDS011;1677;49.576;10.990;2023-04-29T13:00:48;2.53;;;2.33;;
3329;SDS011;1677;49.576;10.990;2023-04-29T13:03:13;3.37;;;2.10;;
3329;SDS011;1677;49.576;10.990;2023-04-29T13:05:39;3.30;;;1.97;;
3329;SDS011;1677;49.576;10.990;2023-04-29T13:08:05;2.47;;;2.17;;
3329;SDS011;1677;49.576;10.990;2023-04-29T13:10:31;2.80;;;2.50;;
3329;SDS011;1677;49.576;10.990;2023-04-29T13:12:57;2.80;;;2.30;;
3329;SDS011;1677;49.576;10.990;2023-04-29T13:15:23;2.37;;;2.17;;
3329;SDS011;1677;49.576;10.990;2023-04-29T13:17:49;2.53;;;2.10;;
3329;SDS011;1677;49.576;10.990;2023-04-29T13:20:15;2.47;;;2.27;;
3329;SDS011;1677;49.576;10.990;2023-04-29T13:22:41;2.53;;;2.33;;
3329;SDS011;1677;49.576;10.990;2023-04-29T13:25:08;2.20;;;2.00;;
3329;SDS011;1677;49.576;10.990;2023-04-29T13:27:34;2.60;;;2.10;;
3329;SDS011;1677;49.576;10.990;2023-04-29T13:30:00;3.60;;;2.70;;
3329;SDS011;1677;49.576;10.990;2023-04-29T13:32:26;2.67;;;2.10;;
3329;SDS011;1677;49.576;10.990;2023-04-29T13:34:52;2.87;;;2.53;;
3329;SDS011;1677;49.576;10.990;2023-04-29T13:37:17;2.93;;;2.00;;
3329;SDS011;1677;49.576;10.990;2023-04-29T13:39:46;2.93;;;2.57;;
3329;SDS011;1677;49.576;10.990;2023-04-29T13:42:12;3.10;;;2.80;;
3329;SDS011;1677;49.576;10.990;2023-04-29T13:44:37;3.43;;;2.90;;
3329;SDS011;1677;49.576;10.990;2023-04-29T13:47:07;3.13;;;2.80;;
3329;SDS011;1677;49.576;10.990;2023-04-29T13:49:34;4.20;;;2.90;;
3329;SDS011;1677;49.576;10.990;2023-04-29T13:52:00;3.07;;;2.80;;
3329;SDS011;1677;49.576;10.990;2023-04-29T13:54:25;5.27;;;3.03;;
3329;SDS011;1677;49.576;10.990;2023-04-29T13:56:51;4.00;;;3.20;;
3329;SDS011;1677;49.576;10.990;2023-04-29T13:59:16;3.40;;;2.80;;
3329;SDS011;1677;49.576;10.990;2023-04-29T14:01:42;3.43;;;3.13;;
3329;SDS011;1677;49.576;10.990;2023-04-29T14:04:08;3.30;;;3.00;;
3329;SDS011;1677;49.576;10.990;2023-04-29T14:06:34;5.05;;;3.05;;
3329;SDS011;1677;49.576;10.990;2023-04-29T14:09:00;3.60;;;2.77;;
3329;SDS011;1677;49.576;10.990;2023-04-29T14:11:25;4.73;;;3.23;;
3329;SDS011;1677;49.576;10.990;2023-04-29T14:13:51;6.33;;;3.10;;
3329;SDS011;1677;49.576;10.990;2023-04-29T14:16:17;3.23;;;2.70;;
3329;SDS011;1677;49.576;10.990;2023-04-29T14:18:42;3.47;;;2.87;;
3329;SDS011;1677;49.576;10.990;2023-04-29T14:21:08;3.30;;;3.00;;
3329;SDS011;1677;49.576;10.990;2023-04-29T14:23:35;3.70;;;2.90;;
3329;SDS011;1677;49.576;10.990;2023-04-29T14:26:00;3.10;;;2.57;;
3329;SDS011;1677;49.576;10.990;2023-04-29T14:28:26;2.60;;;2.40;;
3329;SDS011;1677;49.576;10.990;2023-04-29T14:30:51;4.17;;;3.50;;
3329;SDS011;1677;49.576;10.990;2023-04-29T14:33:17;5.37;;;4.13;;
3329;SDS011;1677;49.576;10.990;2023-04-29T14:35:42;4.90;;;3.83;;
3329;SDS011;1677;49.576;10.990;2023-04-29T14:38:08;5.30;;;4.30;;
3329;SDS011;1677;49.576;10.990;2023-04-29T14:40:33;5.63;;;3.90;;
3329;SDS011;1677;49.576;10.990;2023-04-29T14:42:59;3.60;;;3.20;;
3329;SDS011;1677;49.576;10.990;2023-04-29T14:45:25;4.57;;;4.07;;
3329;SDS011;1677;49.576;10.990;2023-04-29T14:47:52;4.67;;;3.83;;
3329;SDS011;1677;49.576;10.990;2023-04-29T14:50:17;5.20;;;4.10;;
3329;SDS011;1677;49.576;10.990;2023-04-29T14:52:43;5.30;;;3.70;;
3329;SDS011;1677;49.576;10.990;2023-04-29T14:55:08;3.87;;;3.43;;
3329;SDS011;1677;49.576;10.990;2023-04-29T14:57:34;4.67;;;3.80;;
3329;SDS011;1677;49.576;10.990;2023-04-29T14:59:59;3.90;;;3.40;;
3329;SDS011;1677;49.576;10.990;2023-04-29T15:02:25;5.97;;;3.63;;
3329;SDS011;1677;49.576;10.990;2023-04-29T15:04:51;3.87;;;3.40;;
3329;SDS011;1677;49.576;10.990;2023-04-29T15:07:16;4.23;;;3.83;;
3329;SDS011;1677;49.576;10.990;2023-04-29T15:09:42;25.57;;;14.90;;
3329;SDS011;1677;49.576;10.990;2023-04-29T15:12:08;26.90;;;17.27;;
3329;SDS011;1677;49.576;10.990;2023-04-29T15:14:34;15.17;;;10.67;;
3329;SDS011;1677;49.576;10.990;2023-04-29T15:16:59;13.10;;;9.30;;
3329;SDS011;1677;49.576;10.990;2023-04-29T15:19:25;4.90;;;2.93;;
3329;SDS011;1677;49.576;10.990;2023-04-29T15:21:51;13.47;;;9.60;;
3329;SDS011;1677;49.576;10.990;2023-04-29T15:24:17;4.60;;;3.83;;